Elmo, Montana
Current Conditions -  °F | °C
As of 9:55 PM on Tuesday 25 Nov 2014 (Local Time) from KGPI Reporting Station
Haze Haze  
Wind Chill: 33°   Ceiling: 4600
Heat Index: 33°   Visibility: 4mi
Dew Point: 32°   Wind: 0mph
Humidity: 96%   Direction: NA
Pressure: 30.15"   Gusts: NA
Location:  47.83°N, 114.35°W
Report Text: KGPI 260455Z 00000KT 4SM BR OVC046 01/00 A3015 RMK AO2 SLP235 T00060000
Loading
Personal Weather Stations






























Interactive Weather Map New forecast layout! Learn more

10-Day Weather Forecast

Advertisements
Track Severe Weather on mobile